sensor_id;sensor_type;location;lat;lon;timestamp;temperature;humidity
3332;DHT22;1678;50.94845400;5.30809100;2022-12-29T00:01:00;11.20;99.90
3332;DHT22;1678;50.94845400;5.30809100;2022-12-29T00:03:28;11.30;99.90
3332;DHT22;1678;50.94845400;5.30809100;2022-12-29T00:05:58;11.30;99.90
3332;DHT22;1678;50.94845400;5.30809100;2022-12-29T00:08:27;11.30;99.90
3332;DHT22;1678;50.94845400;5.30809100;2022-12-29T00:11:07;11.40;99.90
3332;DHT22;1678;50.94845400;5.30809100;2022-12-29T00:13:36;11.30;99.90
3332;DHT22;1678;50.94845400;5.30809100;2022-12-29T00:16:22;11.30;99.90
3332;DHT22;1678;50.94845400;5.30809100;2022-12-29T00:18:50;11.40;99.90
3332;DHT22;1678;50.94845400;5.30809100;2022-12-29T00:21:21;11.60;99.90
3332;DHT22;1678;50.94845400;5.30809100;2022-12-29T00:24:10;11.40;99.90
3332;DHT22;1678;50.94845400;5.30809100;2022-12-29T00:27:11;11.40;99.90
3332;DHT22;1678;50.94845400;5.30809100;2022-12-29T00:29:57;11.50;99.90
3332;DHT22;1678;50.94845400;5.30809100;2022-12-29T00:32:43;11.60;99.90
3332;DHT22;1678;50.94845400;5.30809100;2022-12-29T00:35:31;11.60;99.90
3332;DHT22;1678;50.94845400;5.30809100;2022-12-29T00:38:03;11.50;99.90
3332;DHT22;1678;50.94845400;5.30809100;2022-12-29T00:40:49;11.60;99.90
3332;DHT22;1678;50.94845400;5.30809100;2022-12-29T00:43:35;11.50;99.90
3332;DHT22;1678;50.94845400;5.30809100;2022-12-29T00:46:20;11.50;99.90
3332;DHT22;1678;50.94845400;5.30809100;2022-12-29T00:48:49;11.40;99.90
3332;DHT22;1678;50.94845400;5.30809100;2022-12-29T00:51:34;11.50;99.90
3332;DHT22;1678;50.94845400;5.30809100;2022-12-29T00:54:06;11.50;99.90
3332;DHT22;1678;50.94845400;5.30809100;2022-12-29T00:56:34;11.80;99.90
3332;DHT22;1678;50.94845400;5.30809100;2022-12-29T00:59:03;11.70;99.90
3332;DHT22;1678;50.94845400;5.30809100;2022-12-29T01:01:31;11.70;99.90
3332;DHT22;1678;50.94845400;5.30809100;2022-12-29T01:04:00;11.80;99.90
3332;DHT22;1678;50.94845400;5.30809100;2022-12-29T01:06:30;11.80;99.90
3332;DHT22;1678;50.94845400;5.30809100;2022-12-29T01:08:59;11.80;99.90
3332;DHT22;1678;50.94845400;5.30809100;2022-12-29T01:11:45;11.90;99.90
3332;DHT22;1678;50.94845400;5.30809100;2022-12-29T01:14:15;11.90;99.90
3332;DHT22;1678;50.94845400;5.30809100;2022-12-29T01:16:43;12.00;99.90
3332;DHT22;1678;50.94845400;5.30809100;2022-12-29T01:19:12;12.00;99.90
3332;DHT22;1678;50.94845400;5.30809100;2022-12-29T01:21:41;12.00;99.90
3332;DHT22;1678;50.94845400;5.30809100;2022-12-29T01:24:09;12.00;99.90
3332;DHT22;1678;50.94845400;5.30809100;2022-12-29T01:26:37;12.00;99.90
3332;DHT22;1678;50.94845400;5.30809100;2022-12-29T01:29:07;12.00;99.90
3332;DHT22;1678;50.94845400;5.30809100;2022-12-29T01:31:36;12.00;99.90
3332;DHT22;1678;50.94845400;5.30809100;2022-12-29T01:34:04;12.00;99.90
3332;DHT22;1678;50.94845400;5.30809100;2022-12-29T01:36:33;12.00;99.90
3332;DHT22;1678;50.94845400;5.30809100;2022-12-29T01:39:02;12.10;99.90
3332;DHT22;1678;50.94845400;5.30809100;2022-12-29T01:41:30;12.10;99.90
3332;DHT22;1678;50.94845400;5.30809100;2022-12-29T01:44:00;12.20;99.90
3332;DHT22;1678;50.94845400;5.30809100;2022-12-29T01:46:31;12.20;99.90
3332;DHT22;1678;50.94845400;5.30809100;2022-12-29T01:49:05;12.20;99.90
3332;DHT22;1678;50.94845400;5.30809100;2022-12-29T01:51:39;12.30;99.90
3332;DHT22;1678;50.94845400;5.30809100;2022-12-29T01:54:11;12.20;99.90
3332;DHT22;1678;50.94845400;5.30809100;2022-12-29T01:56:40;12.20;99.90
3332;DHT22;1678;50.94845400;5.30809100;2022-12-29T01:59:11;12.20;99.90
3332;DHT22;1678;50.94845400;5.30809100;2022-12-29T02:01:43;12.10;99.90
3332;DHT22;1678;50.94845400;5.30809100;2022-12-29T02:04:12;12.10;99.90
3332;DHT22;1678;50.94845400;5.30809100;2022-12-29T02:06:45;12.00;99.90
3332;DHT22;1678;50.94845400;5.30809100;2022-12-29T02:09:14;11.90;99.90
3332;DHT22;1678;50.94845400;5.30809100;2022-12-29T02:11:44;11.80;99.90
3332;DHT22;1678;50.94845400;5.30809100;2022-12-29T02:14:13;11.70;99.90
3332;DHT22;1678;50.94845400;5.30809100;2022-12-29T02:16:55;11.80;99.90
3332;DHT22;1678;50.94845400;5.30809100;2022-12-29T02:22:32;11.90;99.90
3332;DHT22;1678;50.94845400;5.30809100;2022-12-29T02:25:41;11.90;99.90
3332;DHT22;1678;50.94845400;5.30809100;2022-12-29T02:28:33;12.00;99.90
3332;DHT22;1678;50.94845400;5.30809100;2022-12-29T02:31:15;12.00;99.90
3332;DHT22;1678;50.94845400;5.30809100;2022-12-29T02:33:56;12.10;99.90
3332;DHT22;1678;50.94845400;5.30809100;2022-12-29T02:36:32;12.00;99.90
3332;DHT22;1678;50.94845400;5.30809100;2022-12-29T02:39:09;12.00;99.90
3332;DHT22;1678;50.94845400;5.30809100;2022-12-29T02:41:48;12.00;99.90
3332;DHT22;1678;50.94845400;5.30809100;2022-12-29T02:44:26;11.90;99.90
3332;DHT22;1678;50.94845400;5.30809100;2022-12-29T02:47:02;11.90;99.90
3332;DHT22;1678;50.94845400;5.30809100;2022-12-29T02:49:37;11.90;99.90
3332;DHT22;1678;50.94845400;5.30809100;2022-12-29T02:52:09;11.90;99.90
3332;DHT22;1678;50.94845400;5.30809100;2022-12-29T02:54:41;11.90;99.90
3332;DHT22;1678;50.94845400;5.30809100;2022-12-29T02:57:11;11.80;99.90
3332;DHT22;1678;50.94845400;5.30809100;2022-12-29T02:59:40;11.80;99.90
3332;DHT22;1678;50.94845400;5.30809100;2022-12-29T03:02:26;11.70;99.90
3332;DHT22;1678;50.94845400;5.30809100;2022-12-29T03:05:09;11.60;99.90
3332;DHT22;1678;50.94845400;5.30809100;2022-12-29T03:07:46;11.60;99.90
3332;DHT22;1678;50.94845400;5.30809100;2022-12-29T03:10:25;11.70;99.90
3332;DHT22;1678;50.94845400;5.30809100;2022-12-29T03:13:03;11.80;99.90
3332;DHT22;1678;50.94845400;5.30809100;2022-12-29T03:15:55;11.80;99.90
3332;DHT22;1678;50.94845400;5.30809100;2022-12-29T03:18:46;11.90;99.90
3332;DHT22;1678;50.94845400;5.30809100;2022-12-29T03:21:19;11.80;99.90
3332;DHT22;1678;50.94845400;5.30809100;2022-12-29T03:24:11;11.80;99.90
3332;DHT22;1678;50.94845400;5.30809100;2022-12-29T03:26:41;11.80;99.90
3332;DHT22;1678;50.94845400;5.30809100;2022-12-29T03:29:11;11.80;99.90
3332;DHT22;1678;50.94845400;5.30809100;2022-12-29T03:31:41;11.90;99.90
3332;DHT22;1678;50.94845400;5.30809100;2022-12-29T03:34:12;11.90;99.90
3332;DHT22;1678;50.94845400;5.30809100;2022-12-29T03:36:48;11.90;99.90
3332;DHT22;1678;50.94845400;5.30809100;2022-12-29T03:39:20;12.00;99.90
3332;DHT22;1678;50.94845400;5.30809100;2022-12-29T03:41:53;12.10;99.90
3332;DHT22;1678;50.94845400;5.30809100;2022-12-29T03:44:31;12.20;99.90
3332;DHT22;1678;50.94845400;5.30809100;2022-12-29T03:47:00;12.20;99.90
3332;DHT22;1678;50.94845400;5.30809100;2022-12-29T03:49:29;12.20;99.90
3332;DHT22;1678;50.94845400;5.30809100;2022-12-29T03:51:57;12.10;99.90
3332;DHT22;1678;50.94845400;5.30809100;2022-12-29T03:54:25;12.10;99.90
3332;DHT22;1678;50.94845400;5.30809100;2022-12-29T03:56:54;11.90;99.90
3332;DHT22;1678;50.94845400;5.30809100;2022-12-29T03:59:22;11.70;99.90
3332;DHT22;1678;50.94845400;5.30809100;2022-12-29T04:01:50;11.70;99.90
3332;DHT22;1678;50.94845400;5.30809100;2022-12-29T04:04:18;11.50;99.90
3332;DHT22;1678;50.94845400;5.30809100;2022-12-29T04:06:48;11.50;99.90
3332;DHT22;1678;50.94845400;5.30809100;2022-12-29T04:09:16;11.60;99.90
3332;DHT22;1678;50.94845400;5.30809100;2022-12-29T04:11:44;11.60;99.90
3332;DHT22;1678;50.94845400;5.30809100;2022-12-29T04:14:12;11.70;99.90
3332;DHT22;1678;50.94845400;5.30809100;2022-12-29T04:16:40;11.70;99.90
3332;DHT22;1678;50.94845400;5.30809100;2022-12-29T04:19:08;11.50;99.90
3332;DHT22;1678;50.94845400;5.30809100;2022-12-29T04:21:36;11.50;99.90
3332;DHT22;1678;50.94845400;5.30809100;2022-12-29T04:24:07;11.40;99.90
3332;DHT22;1678;50.94845400;5.30809100;2022-12-29T04:26:35;11.40;99.90
3332;DHT22;1678;50.94845400;5.30809100;2022-12-29T04:29:03;11.30;99.90
3332;DHT22;1678;50.94845400;5.30809100;2022-12-29T04:31:31;11.20;99.90
3332;DHT22;1678;50.94845400;5.30809100;2022-12-29T04:34:00;11.30;99.90
3332;DHT22;1678;50.94845400;5.30809100;2022-12-29T04:36:28;11.20;99.90
3332;DHT22;1678;50.94845400;5.30809100;2022-12-29T04:38:57;11.20;99.90
3332;DHT22;1678;50.94845400;5.30809100;2022-12-29T04:41:26;11.30;99.90
3332;DHT22;1678;50.94845400;5.30809100;2022-12-29T04:43:55;11.30;99.90
3332;DHT22;1678;50.94845400;5.30809100;2022-12-29T04:46:23;11.30;99.90
3332;DHT22;1678;50.94845400;5.30809100;2022-12-29T04:48:51;11.20;99.90
3332;DHT22;1678;50.94845400;5.30809100;2022-12-29T04:51:19;11.20;99.90
3332;DHT22;1678;50.94845400;5.30809100;2022-12-29T04:53:47;11.10;99.90
3332;DHT22;1678;50.94845400;5.30809100;2022-12-29T04:56:15;11.10;99.90
3332;DHT22;1678;50.94845400;5.30809100;2022-12-29T04:58:45;11.10;99.90
3332;DHT22;1678;50.94845400;5.30809100;2022-12-29T05:01:13;11.10;99.90
3332;DHT22;1678;50.94845400;5.30809100;2022-12-29T05:03:41;11.00;99.90
3332;DHT22;1678;50.94845400;5.30809100;2022-12-29T05:06:10;11.10;99.90
3332;DHT22;1678;50.94845400;5.30809100;2022-12-29T05:08:38;11.10;99.90
3332;DHT22;1678;50.94845400;5.30809100;2022-12-29T05:11:06;11.10;99.90
3332;DHT22;1678;50.94845400;5.30809100;2022-12-29T05:13:34;11.20;99.90
3332;DHT22;1678;50.94845400;5.30809100;2022-12-29T05:16:03;11.40;99.90
3332;DHT22;1678;50.94845400;5.30809100;2022-12-29T05:18:32;11.40;99.90
3332;DHT22;1678;50.94845400;5.30809100;2022-12-29T05:21:00;11.40;99.90
3332;DHT22;1678;50.94845400;5.30809100;2022-12-29T05:23:28;11.50;99.90
3332;DHT22;1678;50.94845400;5.30809100;2022-12-29T05:25:56;11.50;99.90
3332;DHT22;1678;50.94845400;5.30809100;2022-12-29T05:28:24;11.50;99.90
3332;DHT22;1678;50.94845400;5.30809100;2022-12-29T05:30:52;11.60;99.90
3332;DHT22;1678;50.94845400;5.30809100;2022-12-29T05:33:21;11.60;99.90
3332;DHT22;1678;50.94845400;5.30809100;2022-12-29T05:35:50;11.70;99.90
3332;DHT22;1678;50.94845400;5.30809100;2022-12-29T05:38:18;11.70;99.90
3332;DHT22;1678;50.94845400;5.30809100;2022-12-29T05:40:46;11.70;99.90
3332;DHT22;1678;50.94845400;5.30809100;2022-12-29T05:43:14;11.70;99.90
3332;DHT22;1678;50.94845400;5.30809100;2022-12-29T05:45:44;11.70;99.90
3332;DHT22;1678;50.94845400;5.30809100;2022-12-29T05:48:15;11.70;99.90
3332;DHT22;1678;50.94845400;5.30809100;2022-12-29T05:50:48;11.70;99.90
3332;DHT22;1678;50.94845400;5.30809100;2022-12-29T05:53:17;11.60;99.90
3332;DHT22;1678;50.94845400;5.30809100;2022-12-29T05:55:46;11.60;99.90
3332;DHT22;1678;50.94845400;5.30809100;2022-12-29T05:58:15;11.70;99.90
3332;DHT22;1678;50.94845400;5.30809100;2022-12-29T06:00:44;11.70;99.90
3332;DHT22;1678;50.94845400;5.30809100;2022-12-29T06:03:12;11.70;99.90
3332;DHT22;1678;50.94845400;5.30809100;2022-12-29T06:05:40;11.70;99.90
3332;DHT22;1678;50.94845400;5.30809100;2022-12-29T06:08:09;11.70;99.90
3332;DHT22;1678;50.94845400;5.30809100;2022-12-29T06:10:38;11.70;99.90
3332;DHT22;1678;50.94845400;5.30809100;2022-12-29T06:13:06;11.70;99.90
3332;DHT22;1678;50.94845400;5.30809100;2022-12-29T06:15:34;11.60;99.90
3332;DHT22;1678;50.94845400;5.30809100;2022-12-29T06:18:02;11.60;99.90
3332;DHT22;1678;50.94845400;5.30809100;2022-12-29T06:20:30;11.60;99.90
3332;DHT22;1678;50.94845400;5.30809100;2022-12-29T06:22:58;11.60;99.90
3332;DHT22;1678;50.94845400;5.30809100;2022-12-29T06:25:28;11.50;99.90
3332;DHT22;1678;50.94845400;5.30809100;2022-12-29T06:27:59;11.50;99.90
3332;DHT22;1678;50.94845400;5.30809100;2022-12-29T06:30:27;11.50;99.90
3332;DHT22;1678;50.94845400;5.30809100;2022-12-29T06:32:55;11.50;99.90
3332;DHT22;1678;50.94845400;5.30809100;2022-12-29T06:35:23;11.40;99.90
3332;DHT22;1678;50.94845400;5.30809100;2022-12-29T06:37:51;11.30;99.90
3332;DHT22;1678;50.94845400;5.30809100;2022-12-29T06:40:19;11.30;99.90
3332;DHT22;1678;50.94845400;5.30809100;2022-12-29T06:42:49;11.30;99.90
3332;DHT22;1678;50.94845400;5.30809100;2022-12-29T06:45:17;11.20;99.90
3332;DHT22;1678;50.94845400;5.30809100;2022-12-29T06:47:45;11.20;99.90
3332;DHT22;1678;50.94845400;5.30809100;2022-12-29T06:50:14;11.30;99.90
3332;DHT22;1678;50.94845400;5.30809100;2022-12-29T06:52:43;11.40;99.90
3332;DHT22;1678;50.94845400;5.30809100;2022-12-29T06:55:11;11.20;99.90
3332;DHT22;1678;50.94845400;5.30809100;2022-12-29T06:57:39;11.20;99.90
3332;DHT22;1678;50.94845400;5.30809100;2022-12-29T07:00:09;11.30;99.90
3332;DHT22;1678;50.94845400;5.30809100;2022-12-29T07:02:37;11.30;99.90
3332;DHT22;1678;50.94845400;5.30809100;2022-12-29T07:05:06;11.30;99.90
3332;DHT22;1678;50.94845400;5.30809100;2022-12-29T07:07:36;11.40;99.90
3332;DHT22;1678;50.94845400;5.30809100;2022-12-29T07:10:04;11.50;99.90
3332;DHT22;1678;50.94845400;5.30809100;2022-12-29T07:12:32;11.60;99.90
3332;DHT22;1678;50.94845400;5.30809100;2022-12-29T07:15:00;11.50;99.90
3332;DHT22;1678;50.94845400;5.30809100;2022-12-29T07:17:30;11.40;99.90
3332;DHT22;1678;50.94845400;5.30809100;2022-12-29T07:19:58;11.40;99.90
3332;DHT22;1678;50.94845400;5.30809100;2022-12-29T07:22:26;11.40;99.90
3332;DHT22;1678;50.94845400;5.30809100;2022-12-29T07:24:54;11.30;99.90
3332;DHT22;1678;50.94845400;5.30809100;2022-12-29T07:27:22;11.30;99.90
3332;DHT22;1678;50.94845400;5.30809100;2022-12-29T07:29:50;11.40;99.90
3332;DHT22;1678;50.94845400;5.30809100;2022-12-29T07:32:18;11.30;99.90
3332;DHT22;1678;50.94845400;5.30809100;2022-12-29T07:34:48;11.20;99.90
3332;DHT22;1678;50.94845400;5.30809100;2022-12-29T07:37:16;11.10;99.90
3332;DHT22;1678;50.94845400;5.30809100;2022-12-29T07:39:45;11.00;99.90
3332;DHT22;1678;50.94845400;5.30809100;2022-12-29T07:42:13;10.90;99.90
3332;DHT22;1678;50.94845400;5.30809100;2022-12-29T07:44:41;10.80;99.90
3332;DHT22;1678;50.94845400;5.30809100;2022-12-29T07:47:09;10.80;99.90
3332;DHT22;1678;50.94845400;5.30809100;2022-12-29T07:49:38;10.70;99.90
3332;DHT22;1678;50.94845400;5.30809100;2022-12-29T07:52:07;10.70;99.90
3332;DHT22;1678;50.94845400;5.30809100;2022-12-29T07:54:35;10.80;99.90
3332;DHT22;1678;50.94845400;5.30809100;2022-12-29T07:57:04;10.80;99.90
3332;DHT22;1678;50.94845400;5.30809100;2022-12-29T07:59:32;10.80;99.90
3332;DHT22;1678;50.94845400;5.30809100;2022-12-29T08:02:00;10.90;99.90
3332;DHT22;1678;50.94845400;5.30809100;2022-12-29T08:04:29;11.00;99.90
3332;DHT22;1678;50.94845400;5.30809100;2022-12-29T08:06:57;10.90;99.90
3332;DHT22;1678;50.94845400;5.30809100;2022-12-29T08:09:28;10.90;99.90
3332;DHT22;1678;50.94845400;5.30809100;2022-12-29T08:11:56;10.90;99.90
3332;DHT22;1678;50.94845400;5.30809100;2022-12-29T08:14:24;11.00;99.90
3332;DHT22;1678;50.94845400;5.30809100;2022-12-29T08:16:52;11.00;99.90
3332;DHT22;1678;50.94845400;5.30809100;2022-12-29T08:19:20;10.90;99.90
3332;DHT22;1678;50.94845400;5.30809100;2022-12-29T08:21:49;11.00;99.90
3332;DHT22;1678;50.94845400;5.30809100;2022-12-29T08:24:18;11.00;99.90
3332;DHT22;1678;50.94845400;5.30809100;2022-12-29T08:26:47;11.10;99.90
3332;DHT22;1678;50.94845400;5.30809100;2022-12-29T08:29:15;11.20;99.90
3332;DHT22;1678;50.94845400;5.30809100;2022-12-29T08:31:43;11.20;99.90
3332;DHT22;1678;50.94845400;5.30809100;2022-12-29T08:34:12;11.30;99.90
3332;DHT22;1678;50.94845400;5.30809100;2022-12-29T08:36:40;11.30;99.90
3332;DHT22;1678;50.94845400;5.30809100;2022-12-29T08:39:08;11.30;99.90
3332;DHT22;1678;50.94845400;5.30809100;2022-12-29T08:41:37;11.40;99.90
3332;DHT22;1678;50.94845400;5.30809100;2022-12-29T08:44:06;11.30;99.80
3332;DHT22;1678;50.94845400;5.30809100;2022-12-29T08:46:34;11.30;99.90
3332;DHT22;1678;50.94845400;5.30809100;2022-12-29T08:49:02;11.30;97.20
3332;DHT22;1678;50.94845400;5.30809100;2022-12-29T08:51:30;11.30;98.10
3332;DHT22;1678;50.94845400;5.30809100;2022-12-29T08:53:59;11.20;98.30
3332;DHT22;1678;50.94845400;5.30809100;2022-12-29T08:56:27;11.20;97.90
3332;DHT22;1678;50.94845400;5.30809100;2022-12-29T08:58:55;11.10;99.50
3332;DHT22;1678;50.94845400;5.30809100;2022-12-29T09:01:25;11.20;98.40
3332;DHT22;1678;50.94845400;5.30809100;2022-12-29T09:03:53;11.10;99.40
3332;DHT22;1678;50.94845400;5.30809100;2022-12-29T09:06:42;11.20;99.00
3332;DHT22;1678;50.94845400;5.30809100;2022-12-29T09:09:10;11.20;98.00
3332;DHT22;1678;50.94845400;5.30809100;2022-12-29T09:11:38;11.30;96.60
3332;DHT22;1678;50.94845400;5.30809100;2022-12-29T09:14:07;11.20;98.30
3332;DHT22;1678;50.94845400;5.30809100;2022-12-29T09:16:36;11.20;99.10
3332;DHT22;1678;50.94845400;5.30809100;2022-12-29T09:19:05;11.10;99.40
3332;DHT22;1678;50.94845400;5.30809100;2022-12-29T09:21:33;11.10;98.30
3332;DHT22;1678;50.94845400;5.30809100;2022-12-29T09:24:02;11.10;98.10
3332;DHT22;1678;50.94845400;5.30809100;2022-12-29T09:26:30;11.20;97.10
3332;DHT22;1678;50.94845400;5.30809100;2022-12-29T09:28:58;11.20;98.90
3332;DHT22;1678;50.94845400;5.30809100;2022-12-29T09:31:26;11.20;97.20
3332;DHT22;1678;50.94845400;5.30809100;2022-12-29T09:33:55;11.20;98.00
3332;DHT22;1678;50.94845400;5.30809100;2022-12-29T09:36:24;11.10;99.00
3332;DHT22;1678;50.94845400;5.30809100;2022-12-29T09:38:53;11.20;98.80
3332;DHT22;1678;50.94845400;5.30809100;2022-12-29T09:41:25;11.20;96.80
3332;DHT22;1678;50.94845400;5.30809100;2022-12-29T09:44:05;11.30;97.30
3332;DHT22;1678;50.94845400;5.30809100;2022-12-29T09:46:36;11.40;96.30
3332;DHT22;1678;50.94845400;5.30809100;2022-12-29T09:49:16;11.30;96.60
3332;DHT22;1678;50.94845400;5.30809100;2022-12-29T09:51:50;11.30;95.80
3332;DHT22;1678;50.94845400;5.30809100;2022-12-29T09:54:39;11.30;94.50
3332;DHT22;1678;50.94845400;5.30809100;2022-12-29T09:57:15;11.30;93.80
3332;DHT22;1678;50.94845400;5.30809100;2022-12-29T09:59:46;11.20;93.80
3332;DHT22;1678;50.94845400;5.30809100;2022-12-29T10:02:23;11.30;92.30
3332;DHT22;1678;50.94845400;5.30809100;2022-12-29T10:04:56;11.30;90.60
3332;DHT22;1678;50.94845400;5.30809100;2022-12-29T10:07:32;11.40;90.50
3332;DHT22;1678;50.94845400;5.30809100;2022-12-29T10:10:15;11.40;90.20
3332;DHT22;1678;50.94845400;5.30809100;2022-12-29T10:12:57;11.50;90.80
3332;DHT22;1678;50.94845400;5.30809100;2022-12-29T10:15:46;11.50;89.30
3332;DHT22;1678;50.94845400;5.30809100;2022-12-29T10:18:44;11.40;88.80
3332;DHT22;1678;50.94845400;5.30809100;2022-12-29T10:21:24;11.40;90.10
3332;DHT22;1678;50.94845400;5.30809100;2022-12-29T10:23:56;11.30;90.80
3332;DHT22;1678;50.94845400;5.30809100;2022-12-29T10:26:28;11.20;91.10
3332;DHT22;1678;50.94845400;5.30809100;2022-12-29T10:29:03;11.20;91.30
3332;DHT22;1678;50.94845400;5.30809100;2022-12-29T10:31:35;11.30;91.10
3332;DHT22;1678;50.94845400;5.30809100;2022-12-29T10:34:13;11.40;90.60
3332;DHT22;1678;50.94845400;5.30809100;2022-12-29T10:36:47;11.50;89.40
3332;DHT22;1678;50.94845400;5.30809100;2022-12-29T10:39:21;11.40;90.40
3332;DHT22;1678;50.94845400;5.30809100;2022-12-29T10:41:54;11.40;90.20
3332;DHT22;1678;50.94845400;5.30809100;2022-12-29T10:44:29;11.50;90.80
3332;DHT22;1678;50.94845400;5.30809100;2022-12-29T10:47:00;11.60;90.60
3332;DHT22;1678;50.94845400;5.30809100;2022-12-29T10:49:32;11.70;89.50
3332;DHT22;1678;50.94845400;5.30809100;2022-12-29T10:52:05;11.70;88.70
3332;DHT22;1678;50.94845400;5.30809100;2022-12-29T10:54:39;11.60;89.40
3332;DHT22;1678;50.94845400;5.30809100;2022-12-29T10:57:13;11.60;89.80
3332;DHT22;1678;50.94845400;5.30809100;2022-12-29T10:59:45;11.70;89.20
3332;DHT22;1678;50.94845400;5.30809100;2022-12-29T11:02:33;11.80;88.80
3332;DHT22;1678;50.94845400;5.30809100;2022-12-29T11:05:10;12.00;87.10
3332;DHT22;1678;50.94845400;5.30809100;2022-12-29T11:07:40;12.00;86.50
3332;DHT22;1678;50.94845400;5.30809100;2022-12-29T11:10:16;12.00;85.60
3332;DHT22;1678;50.94845400;5.30809100;2022-12-29T11:12:56;12.00;86.70
3332;DHT22;1678;50.94845400;5.30809100;2022-12-29T11:15:25;11.90;86.10
3332;DHT22;1678;50.94845400;5.30809100;2022-12-29T11:17:57;11.80;86.00
3332;DHT22;1678;50.94845400;5.30809100;2022-12-29T11:20:30;11.90;86.60
3332;DHT22;1678;50.94845400;5.30809100;2022-12-29T11:23:01;11.80;86.80
3332;DHT22;1678;50.94845400;5.30809100;2022-12-29T11:25:30;11.80;87.20
3332;DHT22;1678;50.94845400;5.30809100;2022-12-29T11:28:01;11.80;86.30
3332;DHT22;1678;50.94845400;5.30809100;2022-12-29T11:30:31;11.80;86.60
3332;DHT22;1678;50.94845400;5.30809100;2022-12-29T11:33:03;11.80;86.70
3332;DHT22;1678;50.94845400;5.30809100;2022-12-29T11:35:37;11.80;86.50
3332;DHT22;1678;50.94845400;5.30809100;2022-12-29T11:38:19;11.80;86.90
3332;DHT22;1678;50.94845400;5.30809100;2022-12-29T11:40:48;11.70;88.10
3332;DHT22;1678;50.94845400;5.30809100;2022-12-29T11:43:23;11.70;89.00
3332;DHT22;1678;50.94845400;5.30809100;2022-12-29T11:45:54;11.60;89.50
3332;DHT22;1678;50.94845400;5.30809100;2022-12-29T11:48:27;11.60;89.20
3332;DHT22;1678;50.94845400;5.30809100;2022-12-29T11:50:58;11.70;87.40
3332;DHT22;1678;50.94845400;5.30809100;2022-12-29T11:53:35;11.80;87.50
3332;DHT22;1678;50.94845400;5.30809100;2022-12-29T11:56:07;11.80;86.50
3332;DHT22;1678;50.94845400;5.30809100;2022-12-29T11:58:38;11.80;87.00
3332;DHT22;1678;50.94845400;5.30809100;2022-12-29T12:01:11;11.80;86.70
3332;DHT22;1678;50.94845400;5.30809100;2022-12-29T12:03:47;11.90;85.90
3332;DHT22;1678;50.94845400;5.30809100;2022-12-29T12:06:19;11.90;86.90
3332;DHT22;1678;50.94845400;5.30809100;2022-12-29T12:08:55;12.00;86.30
3332;DHT22;1678;50.94845400;5.30809100;2022-12-29T12:11:28;11.90;84.40
3332;DHT22;1678;50.94845400;5.30809100;2022-12-29T12:14:08;11.90;86.70
3332;DHT22;1678;50.94845400;5.30809100;2022-12-29T12:16:42;11.90;85.40
3332;DHT22;1678;50.94845400;5.30809100;2022-12-29T12:19:15;12.00;86.30
3332;DHT22;1678;50.94845400;5.30809100;2022-12-29T12:21:49;12.10;86.50
3332;DHT22;1678;50.94845400;5.30809100;2022-12-29T12:24:41;12.00;84.40
3332;DHT22;1678;50.94845400;5.30809100;2022-12-29T12:27:13;12.10;84.80
3332;DHT22;1678;50.94845400;5.30809100;2022-12-29T12:29:46;12.00;83.40
3332;DHT22;1678;50.94845400;5.30809100;2022-12-29T12:32:22;12.00;84.70
3332;DHT22;1678;50.94845400;5.30809100;2022-12-29T12:34:52;11.90;83.40
3332;DHT22;1678;50.94845400;5.30809100;2022-12-29T12:37:42;11.90;84.70
3332;DHT22;1678;50.94845400;5.30809100;2022-12-29T12:40:31;11.90;85.50
3332;DHT22;1678;50.94845400;5.30809100;2022-12-29T12:43:13;11.80;83.90
3332;DHT22;1678;50.94845400;5.30809100;2022-12-29T12:45:52;11.90;85.00
3332;DHT22;1678;50.94845400;5.30809100;2022-12-29T12:48:46;11.90;85.00
3332;DHT22;1678;50.94845400;5.30809100;2022-12-29T12:51:25;11.90;84.90
3332;DHT22;1678;50.94845400;5.30809100;2022-12-29T12:54:07;12.00;85.50
3332;DHT22;1678;50.94845400;5.30809100;2022-12-29T12:56:51;11.90;85.50
3332;DHT22;1678;50.94845400;5.30809100;2022-12-29T12:59:33;11.80;84.90
3332;DHT22;1678;50.94845400;5.30809100;2022-12-29T13:02:15;11.70;86.30
3332;DHT22;1678;50.94845400;5.30809100;2022-12-29T13:05:03;11.60;86.30
3332;DHT22;1678;50.94845400;5.30809100;2022-12-29T13:07:43;11.60;87.50
3332;DHT22;1678;50.94845400;5.30809100;2022-12-29T13:10:32;11.60;86.20
3332;DHT22;1678;50.94845400;5.30809100;2022-12-29T13:16:01;11.70;86.50
3332;DHT22;1678;50.94845400;5.30809100;2022-12-29T13:18:48;11.70;87.00
3332;DHT22;1678;50.94845400;5.30809100;2022-12-29T13:21:34;11.70;87.00
3332;DHT22;1678;50.94845400;5.30809100;2022-12-29T13:24:14;11.70;86.00
3332;DHT22;1678;50.94845400;5.30809100;2022-12-29T13:26:47;11.70;85.70
3332;DHT22;1678;50.94845400;5.30809100;2022-12-29T13:29:27;11.80;85.20
3332;DHT22;1678;50.94845400;5.30809100;2022-12-29T13:32:09;11.80;86.10
3332;DHT22;1678;50.94845400;5.30809100;2022-12-29T13:34:48;11.70;85.80
3332;DHT22;1678;50.94845400;5.30809100;2022-12-29T13:37:26;11.60;86.00
3332;DHT22;1678;50.94845400;5.30809100;2022-12-29T13:39:58;11.60;87.10
3332;DHT22;1678;50.94845400;5.30809100;2022-12-29T13:42:28;11.60;87.10
3332;DHT22;1678;50.94845400;5.30809100;2022-12-29T13:45:02;11.60;87.90
3332;DHT22;1678;50.94845400;5.30809100;2022-12-29T13:47:46;11.60;88.90
3332;DHT22;1678;50.94845400;5.30809100;2022-12-29T13:50:19;11.50;87.80
3332;DHT22;1678;50.94845400;5.30809100;2022-12-29T13:52:56;11.50;89.10
3332;DHT22;1678;50.94845400;5.30809100;2022-12-29T13:55:37;11.40;88.50
3332;DHT22;1678;50.94845400;5.30809100;2022-12-29T13:58:12;11.40;89.30
3332;DHT22;1678;50.94845400;5.30809100;2022-12-29T14:00:51;11.40;89.40
3332;DHT22;1678;50.94845400;5.30809100;2022-12-29T14:03:43;11.40;89.30
3332;DHT22;1678;50.94845400;5.30809100;2022-12-29T14:06:20;11.40;88.50
3332;DHT22;1678;50.94845400;5.30809100;2022-12-29T14:08:50;11.40;89.30
3332;DHT22;1678;50.94845400;5.30809100;2022-12-29T14:11:22;11.20;93.20
3332;DHT22;1678;50.94845400;5.30809100;2022-12-29T14:13:52;10.80;99.90
3332;DHT22;1678;50.94845400;5.30809100;2022-12-29T14:16:28;10.50;99.90
3332;DHT22;1678;50.94845400;5.30809100;2022-12-29T14:19:10;10.40;99.90
3332;DHT22;1678;50.94845400;5.30809100;2022-12-29T14:21:50;10.40;99.90
3332;DHT22;1678;50.94845400;5.30809100;2022-12-29T14:24:42;10.50;99.90